Warrenton, Oregon
Current Conditions -  °F | °C
As of 11:55 PM on Friday 28 Nov 2014 (Local Time) from KAST Reporting Station
Broken Clouds Broken Clouds  
Wind Chill: 39°   Ceiling: 8000
Heat Index: 43°   Visibility: 10mi
Dew Point: 35°   Wind: 6mph
Humidity: 74%   Direction: 260°W
Pressure: 29.6"   Gusts: NA
Location:  46.17°N, 123.92°W
Report Text: KAST 290755Z AUTO 26005KT 10SM FEW065 BKN080 06/02 A2960 RMK AO2 SLP023 T00610017 401390056
Loading
Personal Weather Stations






























Interactive Weather Map New forecast layout! Learn more

10-Day Weather Forecast

Advertisements
Track Severe Weather on mobile